Home > Products > Valid Products > TAF

000
FTUS43 KAPX 231700
TAFPLN
TAF
KPLN 231720Z 2318/2418 31007KT P6SM FEW250
     FM240000 00000KT P6SM SCT250
     FM240900 00000KT P6SM BKN200
     FM241300 11007KT P6SM BKN150=



000
FTUS43 KAPX 231700
TAFAPN
TAF
KAPN 231720Z 2318/2418 34008G15KT P6SM SKC
     FM240100 00000KT P6SM SCT250
     FM240900 00000KT P6SM BKN200
     FM241300 12007KT P6SM BKN180=



000
FTUS43 KAPX 231700
TAFTVC
TAF
KTVC 231720Z 2318/2418 36006KT P6SM SCT250
     FM240000 00000KT P6SM SCT250
     FM240600 00000KT P6SM BKN200
     FM241300 13004KT P6SM BKN120
     FM241500 13006KT P6SM VCSH OVC080=



000
FTUS43 KAPX 231100
TAFAPN
TAF
KAPN 231120Z 2312/2412 32009KT P6SM SKC
     FM231400 34008G15KT P6SM SKC
     FM240000 VRB03KT P6SM SCT250
     FM240900 09003KT P6SM BKN200=



000
FTUS43 KAPX 231100
TAFPLN
TAF
KPLN 231120Z 2312/2412 31007KT P6SM SKC
     FM240000 00000KT P6SM SCT250
     FM240900 00000KT P6SM BKN200=



000
FTUS43 KAPX 231100
TAFTVC
TAF
KTVC 231120Z 2312/2412 36006KT P6SM SKC
     FM240000 00000KT P6SM SCT250
     FM240600 09003KT P6SM BKN200=



000
FTUS43 KAPX 230500
TAFPLN
TAF
KPLN 230538Z 2306/2406 31007KT P6SM SKC
     FM231500 32010G17KT P6SM SKC
     FM240000 VRB03KT P6SM SCT250=



000
FTUS43 KAPX 230500
TAFTVC
TAF
KTVC 230538Z 2306/2406 32006KT P6SM BKN035
     FM230700 32006KT P6SM SKC
     FM231400 36008KT P6SM SKC
     FM240000 VRB03KT P6SM SCT250=



000
FTUS43 KAPX 230500
TAFAPN
TAF
KAPN 230538Z 2306/2406 32009KT P6SM SCT035
     FM230700 32009KT P6SM SKC
     FM231400 34012G21KT P6SM SKC
     FM240000 32006KT P6SM SCT250=



000
FTUS43 KAPX 230300 AAA
TAFAPN
TAF AMD
KAPN 230358Z 2304/2324 32008KT P6SM SCT028 BKN050
     FM230700 33009KT P6SM FEW035
     FM231400 34011G20KT P6SM SKC=



000
FTUS43 KAPX 230100 AAA
TAFTVC
TAF AMD
KTVC 230105Z 2301/2324 33011G19KT P6SM SCT025 OVC035
      TEMPO 2301/2305 BKN025
     FM230600 32005KT P6SM FEW035
     FM231400 36008KT P6SM SKC=



000
FTUS43 KAPX 222300
TAFAPN
TAF
KAPN 222328Z 2300/2324 32012G20KT P6SM OVC027
     FM230700 33009KT P6SM FEW035
     FM231400 34011G20KT P6SM SKC=



000
FTUS43 KAPX 222300
TAFPLN
TAF
KPLN 222328Z 2300/2324 31015G25KT P6SM SCT025 OVC050
     FM230400 33008KT P6SM FEW035
     FM231400 32010G17KT P6SM SKC=



000
FTUS43 KAPX 222300
TAFTVC
TAF
KTVC 222328Z 2300/2324 33013G21KT P6SM SCT025 OVC035
     FM230600 32005KT P6SM FEW035
     FM231400 36008KT P6SM SKC=



000
FTUS43 KAPX 221800 AAA
TAFTVC
TAF AMD
KTVC 221845Z 2219/2318 32016G26KT P6SM SCT025 OVC035
      TEMPO 2219/2222 OVC025
     FM222200 34012KT P6SM OVC040
     FM230700 33006KT P6SM SKC
     FM231500 36008KT P6SM SKC=



000
FTUS43 KAPX 221800 AAA
TAFPLN
TAF AMD
KPLN 221845Z 2219/2318 31015G27KT P6SM SCT008 OVC015
     FM222100 32015G27KT P6SM OVC015
     FM230300 32010KT P6SM OVC035
     FM230800 33004KT P6SM SKC
     FM231500 33010KT P6SM SKC=



000
FTUS43 KAPX 221800 AAA
TAFAPN
TAF AMD
KAPN 221845Z 2219/2318 31012G22KT P6SM OVC015
     FM222100 32012G20KT P6SM BKN025
     FM230300 32012KT P6SM OVC040
     FM230800 32008KT P6SM SKC
     FM231500 33012KT P6SM SKC=



000
FTUS43 KAPX 221700
TAFAPN
TAF
KAPN 221730Z 2218/2318 31014G26KT P6SM OVC015
     FM222100 32012G20KT P6SM BKN025
     FM230300 32012KT P6SM OVC040
     FM230800 32008KT P6SM SKC
     FM231500 33012KT P6SM SKC=



000
FTUS43 KAPX 221700
TAFTVC
TAF
KTVC 221730Z 2218/2318 32016G26KT P6SM SCT015 OVC025
      TEMPO 2218/2222 OVC015
     FM222300 34012KT P6SM OVC040
     FM230700 33006KT P6SM SKC
     FM231500 36008KT P6SM SKC=



000
FTUS43 KAPX 221700
TAFPLN
TAF
KPLN 221730Z 2218/2318 31015G27KT P6SM SCT008 OVC015
      TEMPO 2218/2221 BKN008
     FM222100 32015G27KT P6SM OVC015
     FM230300 32010KT P6SM OVC035
     FM230800 33004KT P6SM SKC
     FM231500 33010KT P6SM SKC=



000
FTUS43 KAPX 221500 AAE
TAFPLN
TAF AMD
KPLN 221506Z 2215/2312 30014G23KT 6SM -DZ OVC005
     FM221600 30015G25KT P6SM OVC008
     FM221800 31015G27KT P6SM BKN015
     FM222100 32015G27KT P6SM BKN040
     FM230000 31012KT P6SM OVC035
     FM230800 32005KT P6SM SKC=



000
FTUS43 KAPX 221500 AAC
TAFAPN
TAF AMD
KAPN 221506Z 2215/2312 30013G25KT P6SM OVC010
     FM221800 32014G26KT P6SM OVC025
     FM222100 32014G26KT P6SM OVC040
     FM230200 32012KT P6SM OVC040
     FM230800 32008KT P6SM SKC=



000
FTUS43 KAPX 221500 AAA
TAFTVC
TAF AMD
KTVC 221506Z 2215/2312 31015G25KT P6SM SCT008 OVC015
     FM221800 32015G26KT P6SM BKN040
     FM222300 34011KT P6SM OVC040
     FM230700 32008KT P6SM SKC=



000
FTUS43 KAPX 221400 AAD
TAFPLN
TAF AMD
KPLN 221421Z 2214/2312 30014G23KT 3SM -DZ BR OVC005
     FM221600 31015G25KT P6SM BKN015
     FM221900 32015G27KT P6SM BKN040
     FM230000 31012KT P6SM OVC035
     FM230800 32005KT P6SM SKC=



000
FTUS43 KAPX 221300 AAC
TAFPLN
TAF AMD
KPLN 221350Z 2214/2312 30012KT P6SM OVC008
      TEMPO 2214/2215 2SM BR
     FM221600 31015G25KT P6SM BKN015
     FM221900 32015G27KT P6SM BKN040
     FM230000 31012KT P6SM OVC035
     FM230800 32005KT P6SM SKC=



000
FTUS43 KAPX 221200 AAB
TAFPLN
TAF AMD
KPLN 221240Z 2213/2312 30012KT P6SM OVC008
     FM221600 31015G25KT P6SM BKN015
     FM221900 32015G27KT P6SM BKN040
     FM230000 31012KT P6SM OVC035
     FM230800 32005KT P6SM SKC=



000
FTUS43 KAPX 221200 AAB
TAFAPN
TAF AMD
KAPN 221228Z 2212/2312 30013G25KT P6SM OVC015
     FM221800 32014G26KT P6SM OVC040
     FM230200 32012KT P6SM OVC040
     FM230800 32008KT P6SM SKC=



000
FTUS43 KAPX 221200 AAA
TAFPLN
TAF AMD
KPLN 221228Z 2212/2312 30012KT P6SM OVC012
     FM221300 31015G28KT P6SM OVC025
     FM221900 32015G27KT P6SM BKN040
     FM230000 31012KT P6SM OVC035
     FM230800 32005KT P6SM SKC=



000
FTUS43 KAPX 221200 AAA
TAFAPN
TAF AMD
KAPN 221209Z 2212/2312 30012G22KT P6SM SCT015
     FM221230 31013G25KT P6SM OVC020
     FM221800 32014G26KT P6SM OVC040
     FM230200 32012KT P6SM OVC040
     FM230800 32008KT P6SM SKC=



000
FTUS43 KAPX 221100
TAFTVC
TAF
KTVC 221120Z 2212/2312 32010G21KT P6SM OVC028
     FM221600 33013G26KT P6SM BKN040
     FM222300 34011KT P6SM OVC040
     FM230700 32008KT P6SM SKC=



000
FTUS43 KAPX 221100
TAFAPN
TAF
KAPN 221120Z 2212/2312 31013G25KT P6SM OVC020
     FM221800 32014G26KT P6SM OVC040
     FM230200 32012KT P6SM OVC040
     FM230800 32008KT P6SM SKC=



000
FTUS43 KAPX 221100
TAFPLN
TAF
KPLN 221120Z 2212/2312 30013G24KT P6SM OVC018
     FM221300 31015G28KT P6SM OVC025
     FM221900 32015G27KT P6SM BKN040
     FM230000 31012KT P6SM OVC035
     FM230800 32005KT P6SM SKC=



000
FTUS43 KAPX 220700 AAA
TAFAPN
TAF AMD
KAPN 220738Z 2208/2306 32009G16KT P6SM SCT050
     FM221300 31014G26KT P6SM OVC028
     FM221800 32013G23KT P6SM BKN040
     FM230200 32011KT P6SM SCT045=



000
FTUS43 KAPX 220500
TAFPLN
TAF
KPLN 220540Z 2206/2306 31011G20KT P6SM SKC
     FM220800 30012G22KT P6SM OVC028
     FM221300 31015G28KT P6SM OVC025
     FM221900 32015G27KT P6SM BKN040
     FM230000 31012KT P6SM BKN035=



000
FTUS43 KAPX 220500
TAFTVC
TAF
KTVC 220540Z 2206/2306 33010KT P6SM SKC
     FM220900 32010G21KT P6SM OVC030
     FM221900 33013G26KT P6SM BKN040
     FM222300 34011KT P6SM BKN040=



000
FTUS43 KAPX 220500
TAFAPN
TAF
KAPN 220540Z 2206/2306 32005KT 6SM BR OVC008
      TEMPO 2206/2207 2SM BR OVC005
     FM220800 31008KT P6SM SKC
     FM221100 30010G20KT P6SM OVC035
     FM221400 31014G26KT P6SM OVC028
     FM221800 32013G23KT P6SM BKN040
     FM230200 32011KT P6SM SCT045=



000
FTUS43 KAPX 220300 AAB
TAFAPN
TAF AMD
KAPN 220353Z 2204/2224 00000KT 2SM BR VCSH SCT009 OVC017
      TEMPO 2204/2206 1SM BR BKN003
     FM220700 31008KT P6SM SKC
     FM221100 30010G20KT P6SM OVC035
     FM221400 31014G26KT P6SM OVC028
     FM221800 32013G23KT P6SM BKN040=



000
FTUS43 KAPX 220300 AAC
TAFTVC
TAF AMD
KTVC 220350Z 2204/2224 35009KT 1SM BR BKN004 OVC018
     FM220530 33010KT P6SM SKC
     FM220900 32010G21KT P6SM OVC030
     FM221900 33013G26KT P6SM BKN040=



000
FTUS43 KAPX 220300 AAB
TAFPLN
TAF AMD
KPLN 220348Z 2204/2224 30010KT 1SM BR OVC005
     FM220445 31009G15KT P6SM SKC
     FM220800 30010G21KT P6SM OVC028
     FM221300 31015G28KT P6SM OVC025
     FM221900 32016G27KT P6SM OVC040=



000
FTUS43 KAPX 220200 AAA
TAFAPN
TAF AMD
KAPN 220223Z 2202/2224 VRB02KT 3SM BR VCSH SCT009 OVC017
      TEMPO 2202/2205 2SM BR OVC008
     FM220600 33009G15KT P6SM SKC
     FM221000 30010G20KT P6SM OVC028
     FM221400 31014G26KT P6SM OVC030
     FM221700 32013G23KT P6SM OVC040=



000
FTUS43 KAPX 220200 AAA
TAFPLN
TAF AMD
KPLN 220220Z 2202/2224 10003KT P6SM VCSH SCT009 OVC018
      TEMPO 2202/2204 BKN009
     FM220430 31009G15KT P6SM SKC
     FM220700 30010G21KT P6SM OVC018
     FM221300 31015G28KT P6SM OVC025
     FM221900 32016G27KT P6SM OVC040=



000
FTUS43 KAPX 220200 AAB
TAFTVC
TAF AMD
KTVC 220219Z 2202/2224 VRB02KT 6SM BR VCSH OVC050
      TEMPO 2202/2204 1/2SM SHRA FG BKN002 OVC018
     FM220400 33010KT P6SM SKC
     FM220800 31010G21KT P6SM OVC019
     FM221400 31013G25KT P6SM OVC022
     FM221900 32012G23KT P6SM OVC040=



000
FTUS43 KAPX 220100 AAA
TAFTVC
TAF AMD
KTVC 220135Z 2202/2224 VRB02KT 6SM BR VCSH OVC050
      TEMPO 2202/2203 4SM SHRA BR OVC028
     FM220400 33010KT P6SM SKC
     FM220800 31010G21KT P6SM OVC019
     FM221400 31013G25KT P6SM OVC022
     FM221900 32012G23KT P6SM OVC040=



000
FTUS43 KAPX 212300
TAFPLN
TAF
KPLN 212320Z 2200/2224 10003KT P6SM VCSH SCT009 OVC018
      TEMPO 2200/2203 BKN009
     FM220300 31009G15KT P6SM SKC
     FM220700 30010G21KT P6SM OVC018
     FM221300 31015G28KT P6SM OVC025
     FM221900 32016G27KT P6SM OVC040=



000
FTUS43 KAPX 212300
TAFTVC
TAF
KTVC 212320Z 2200/2224 VRB02KT 6SM BR VCSH OVC050
      TEMPO 2200/2203 4SM BR OVC028
     FM220400 33010KT P6SM SKC
     FM220800 31010G21KT P6SM OVC019
     FM221400 31013G25KT P6SM OVC022
     FM221900 32012G23KT P6SM OVC040=



000
FTUS43 KAPX 212300
TAFAPN
TAF
KAPN 212320Z 2200/2224 09004KT 4SM -SHRA BR SCT018 OVC040
      TEMPO 2200/2201 1SM SHRA BR OVC018
     FM220100 VRB02KT 1SM BR VCSH SCT009 OVC017
     FM220500 33009G15KT P6SM SKC
     FM221000 30010G20KT P6SM OVC028
     FM221400 31014G26KT P6SM OVC030
     FM221700 32013G23KT P6SM OVC040=



000
FTUS43 KAPX 212200 AAA
TAFAPN
TAF AMD
KAPN 212229Z 2122/2218 VRB03KT 4SM -SHRA BR SCT018 OVC040
      TEMPO 2122/2201 2SM SHRA BR OVC018
     FM220300 30006KT P6SM VCSH SCT017 OVC040
     FM221000 30010G20KT P6SM OVC015
     FM221300 31014G26KT P6SM OVC020=



000
FTUS43 KAPX 212100 AAB
TAFPLN
TAF AMD
KPLN 212139Z 2122/2218 VRB03KT P6SM VCSH OVC018
     FM220000 23004KT 4SM BR SCT009 OVC015
     FM220300 31009KT P6SM SCT050
     FM220700 30010G20KT P6SM OVC012
     FM221300 31014G26KT P6SM OVC020=



000
FTUS43 KAPX 212100 AAA
TAFTVC
TAF AMD
KTVC 212134Z 2122/2218 VRB04KT 4SM SHRA OVC060
     FM212300 21004KT 3SM BR SCT025 OVC050
      TEMPO 2123/2202 2SM BR OVC022
     FM220400 33011KT P6SM SCT060
     FM220800 31010G21KT P6SM OVC015
     FM221400 31013G25KT P6SM OVC022=



000
FTUS43 KAPX 212000 AAA
TAFPLN
TAF AMD
KPLN 212038Z 2121/2218 VRB03KT P6SM -SHRA SCT015 OVC023
     FM220300 27007KT P6SM OVC015
     FM220700 30010G20KT P6SM OVC012
     FM221300 31014G26KT P6SM OVC020=



000
FTUS43 KAPX 211700 RRA
TAFTVC
TAF
KTVC 211740Z 2118/2218 20005KT P6SM SHRA OVC080
     FM220200 29007KT P6SM SCT012 OVC040
     FM220800 31010G21KT P6SM OVC015
     FM221400 31013G25KT P6SM OVC022=



000
FTUS43 KAPX 211700 RRA
TAFPLN
TAF
KPLN 211740Z 2118/2218 12004KT P6SM -SHRA SCT035 OVC090
     FM212200 27007KT P6SM OVC015
     FM220700 30010G20KT P6SM OVC012
     FM221300 31014G26KT P6SM OVC020=



000
FTUS43 KAPX 211700 RRA
TAFAPN
TAF
KAPN 211740Z 2118/2218 10004KT P6SM -SHRA OVC090
     FM220300 30006KT P6SM -SHRA SCT017 OVC040
     FM221000 30010G20KT P6SM OVC015
     FM221300 31014G26KT P6SM OVC020=



000
FTUS43 KAPX 211100
TAFTVC
TAF
KTVC 211120Z 2112/2212 VRB03KT P6SM -SHRA OVC070
     FM211500 14005KT 6SM -RA OVC040
     FM212200 29006KT 3SM -RA BR OVC015=



000
FTUS43 KAPX 211100
TAFAPN
TAF
KAPN 211120Z 2112/2212 VRB03KT P6SM VCSH OVC060
     FM211500 14007KT 6SM -SHRA OVC040
     FM220000 VRB03KT 3SM -SHRA BR OVC015=



000
FTUS43 KAPX 211100
TAFPLN
TAF
KPLN 211120Z 2112/2212 VRB03KT 5SM BR VCSH OVC060
     FM211500 12005KT 6SM -SHRA OVC040
     FM212200 29006KT 3SM -SHRA BR OVC015=



000
FTUS43 KAPX 210900 AAB
TAFPLN
TAF AMD
KPLN 210940Z 2110/2206 VRB03KT 5SM BR VCSH BKN050
     FM211500 12004KT 3SM -SHRA BR OVC008
     FM212000 34004KT 5SM -SHRA BR OVC008=



000
FTUS43 KAPX 210800 AAA
TAFPLN
TAF AMD
KPLN 210805Z 2108/2206 00000KT 5SM BR VCSH BKN050
      TEMPO 2108/2112 2SM BR BKN025 OVC050
     FM211300 12004KT 3SM -SHRA BR OVC008
     FM212000 34004KT 5SM -SHRA BR OVC008=



000
FTUS43 KAPX 210500
TAFAPN
TAF
KAPN 210520Z 2106/2206 VRB03KT P6SM VCSH OVC070
     FM211000 VRB03KT P6SM VCSH SCT030 OVC060
     FM211800 13008KT 5SM -RA OVC025
     FM220000 35004KT 3SM -RA BR OVC008=



000
FTUS43 KAPX 210500
TAFPLN
TAF
KPLN 210520Z 2106/2206 00000KT 5SM BR VCSH BKN030
      TEMPO 2106/2109 2SM BR
     FM210900 00000KT 1SM BR BKN025
     FM211300 12004KT 3SM -SHRA BR OVC008
     FM212000 34004KT 5SM -SHRA BR OVC008=



000
FTUS43 KAPX 210500
TAFTVC
TAF
KTVC 210520Z 2106/2206 00000KT P6SM VCSH OVC050
     FM211300 24004KT P6SM VCSH BKN050
     FM212000 33005KT 5SM -SHRA OVC015
     FM220200 33007KT P6SM VCSH SCT008 OVC015=



000
FTUS43 KAPX 210300 AAB
TAFPLN
TAF AMD
KPLN 210359Z 2104/2124 00000KT 6SM BR SCT030 BKN060
      TEMPO 2104/2108 3SM BR OVC030
     FM210800 00000KT 1SM BR BKN035
     FM211300 12004KT 3SM -SHRA BR OVC025
     FM212000 34004KT 5SM -SHRA BR OVC015=



000
FTUS43 KAPX 210200 AAA
TAFTVC
TAF AMD
KTVC 210201Z 2102/2124 00000KT P6SM VCSH OVC080
     FM210300 00000KT P6SM OVC050
     FM211300 VRB03KT 6SM -SHRA OVC025
     FM212000 34005KT 5SM -SHRA OVC015=



000
FTUS43 KAPX 210200 AAA
TAFPLN
TAF AMD
KPLN 210201Z 2102/2124 00000KT 6SM -SHRA SCT050 OVC070
     FM210900 00000KT 1SM BR BKN035
     FM211300 12004KT 3SM -SHRA BR OVC025
     FM212000 34004KT 5SM -SHRA BR OVC015=



000
FTUS43 KAPX 202300
TAFTVC
TAF
KTVC 202330Z 2100/2124 24004KT P6SM VCSH OVC080
     FM210300 VRB03KT P6SM OVC050
     FM211300 VRB03KT 6SM -SHRA OVC025
     FM212000 34005KT 5SM -SHRA OVC015=



000
FTUS43 KAPX 202300
TAFPLN
TAF
KPLN 202330Z 2100/2124 VRB02KT P6SM VCSH OVC070
     FM210300 VRB02KT 4SM -DZ OVC035
     FM210900 00000KT 1SM BR BKN035
     FM211300 12004KT 3SM -SHRA BR OVC025
     FM212000 34004KT 5SM -SHRA BR OVC015=



000
FTUS43 KAPX 202300
TAFAPN
TAF
KAPN 202330Z 2100/2124 VRB03KT 6SM -SHRA OVC070
     FM211000 VRB03KT 6SM -SHRA BKN025 OVC040
     FM211800 13008KT 5SM -RA OVC015=



    US Dept of Commerce
    National Oceanic and Atmospheric Administration
    National Weather Service
    1325 East West Highway
    Silver Spring, MD 20910
    Page Author: NWS Internet Services Team
Disclaimer
Information Quality
Credits
Glossary
Privacy Policy
Freedom of Information Act (FOIA)
About Us
Career Opportunities